sensor_id;sensor_type;location;lat;lon;timestamp;P1;durP1;ratioP1;P2;durP2;ratioP2
13989;SDS011;7069;52.528;13.316;2023-06-22T00:00:33;11.48;;;10.38;;
13989;SDS011;7069;52.528;13.316;2023-06-22T00:02:59;12.35;;;11.20;;
13989;SDS011;7069;52.528;13.316;2023-06-22T00:05:26;11.88;;;10.90;;
13989;SDS011;7069;52.528;13.316;2023-06-22T00:07:53;11.82;;;10.80;;
13989;SDS011;7069;52.528;13.316;2023-06-22T00:10:20;11.30;;;10.40;;
13989;SDS011;7069;52.528;13.316;2023-06-22T00:12:47;11.95;;;10.80;;
13989;SDS011;7069;52.528;13.316;2023-06-22T00:15:13;11.05;;;10.05;;
13989;SDS011;7069;52.528;13.316;2023-06-22T00:17:39;10.50;;;9.63;;
13989;SDS011;7069;52.528;13.316;2023-06-22T00:20:06;10.32;;;9.38;;
13989;SDS011;7069;52.528;13.316;2023-06-22T00:22:35;9.77;;;8.98;;
13989;SDS011;7069;52.528;13.316;2023-06-22T00:25:06;11.43;;;10.32;;
13989;SDS011;7069;52.528;13.316;2023-06-22T00:27:32;10.20;;;9.20;;
13989;SDS011;7069;52.528;13.316;2023-06-22T00:29:59;9.02;;;8.15;;
13989;SDS011;7069;52.528;13.316;2023-06-22T00:32:25;8.82;;;8.02;;
13989;SDS011;7069;52.528;13.316;2023-06-22T00:34:52;9.48;;;8.27;;
13989;SDS011;7069;52.528;13.316;2023-06-22T00:37:18;8.48;;;7.68;;
13989;SDS011;7069;52.528;13.316;2023-06-22T00:39:44;9.00;;;8.20;;
13989;SDS011;7069;52.528;13.316;2023-06-22T00:42:12;9.77;;;8.88;;
13989;SDS011;7069;52.528;13.316;2023-06-22T00:44:38;9.90;;;8.88;;
13989;SDS011;7069;52.528;13.316;2023-06-22T00:47:05;8.48;;;7.72;;
13989;SDS011;7069;52.528;13.316;2023-06-22T00:49:32;8.85;;;8.15;;
13989;SDS011;7069;52.528;13.316;2023-06-22T00:51:59;8.15;;;7.55;;
13989;SDS011;7069;52.528;13.316;2023-06-22T00:54:25;8.18;;;7.47;;
13989;SDS011;7069;52.528;13.316;2023-06-22T00:56:51;8.23;;;7.53;;
13989;SDS011;7069;52.528;13.316;2023-06-22T00:59:21;8.70;;;7.88;;
13989;SDS011;7069;52.528;13.316;2023-06-22T01:01:47;8.82;;;8.13;;
13989;SDS011;7069;52.528;13.316;2023-06-22T01:04:14;9.50;;;8.52;;
13989;SDS011;7069;52.528;13.316;2023-06-22T01:06:41;8.55;;;7.85;;
13989;SDS011;7069;52.528;13.316;2023-06-22T01:09:12;8.40;;;7.68;;
13989;SDS011;7069;52.528;13.316;2023-06-22T01:11:41;8.35;;;7.65;;
13989;SDS011;7069;52.528;13.316;2023-06-22T01:14:11;8.30;;;7.57;;
13989;SDS011;7069;52.528;13.316;2023-06-22T01:16:40;8.93;;;8.18;;
13989;SDS011;7069;52.528;13.316;2023-06-22T01:19:09;9.88;;;8.98;;
13989;SDS011;7069;52.528;13.316;2023-06-22T01:21:39;8.82;;;8.02;;
13989;SDS011;7069;52.528;13.316;2023-06-22T01:24:10;9.40;;;8.57;;
13989;SDS011;7069;52.528;13.316;2023-06-22T01:26:42;10.05;;;9.10;;
13989;SDS011;7069;52.528;13.316;2023-06-22T01:29:11;10.35;;;9.35;;
13989;SDS011;7069;52.528;13.316;2023-06-22T01:31:38;9.30;;;8.50;;
13989;SDS011;7069;52.528;13.316;2023-06-22T01:34:06;9.70;;;8.85;;
13989;SDS011;7069;52.528;13.316;2023-06-22T01:36:33;9.88;;;9.07;;
13989;SDS011;7069;52.528;13.316;2023-06-22T01:38:59;9.85;;;8.95;;
13989;SDS011;7069;52.528;13.316;2023-06-22T01:41:27;9.63;;;7.90;;
13989;SDS011;7069;52.528;13.316;2023-06-22T01:43:55;8.85;;;8.00;;
13989;SDS011;7069;52.528;13.316;2023-06-22T01:46:23;9.35;;;8.48;;
13989;SDS011;7069;52.528;13.316;2023-06-22T01:48:50;9.35;;;8.55;;
13989;SDS011;7069;52.528;13.316;2023-06-22T01:51:16;9.45;;;8.65;;
13989;SDS011;7069;52.528;13.316;2023-06-22T01:53:43;10.35;;;9.43;;
13989;SDS011;7069;52.528;13.316;2023-06-22T01:56:09;10.68;;;9.68;;
13989;SDS011;7069;52.528;13.316;2023-06-22T01:58:40;12.13;;;11.02;;
13989;SDS011;7069;52.528;13.316;2023-06-22T02:01:11;12.63;;;11.32;;
13989;SDS011;7069;52.528;13.316;2023-06-22T02:03:40;12.07;;;10.98;;
13989;SDS011;7069;52.528;13.316;2023-06-22T02:06:08;11.60;;;10.60;;
13989;SDS011;7069;52.528;13.316;2023-06-22T02:08:37;10.63;;;9.57;;
13989;SDS011;7069;52.528;13.316;2023-06-22T02:11:04;11.38;;;10.30;;
13989;SDS011;7069;52.528;13.316;2023-06-22T02:13:32;11.48;;;10.48;;
13989;SDS011;7069;52.528;13.316;2023-06-22T02:15:59;11.40;;;10.35;;
13989;SDS011;7069;52.528;13.316;2023-06-22T02:18:26;12.20;;;11.10;;
13989;SDS011;7069;52.528;13.316;2023-06-22T02:20:54;12.07;;;10.18;;
13989;SDS011;7069;52.528;13.316;2023-06-22T02:23:20;11.20;;;10.25;;
13989;SDS011;7069;52.528;13.316;2023-06-22T02:25:47;10.38;;;9.43;;
13989;SDS011;7069;52.528;13.316;2023-06-22T02:28:13;10.00;;;9.00;;
13989;SDS011;7069;52.528;13.316;2023-06-22T02:30:40;9.80;;;9.00;;
13989;SDS011;7069;52.528;13.316;2023-06-22T02:33:06;10.13;;;9.27;;
13989;SDS011;7069;52.528;13.316;2023-06-22T02:35:33;10.40;;;9.40;;
13989;SDS011;7069;52.528;13.316;2023-06-22T02:38:02;10.55;;;9.65;;
13989;SDS011;7069;52.528;13.316;2023-06-22T02:40:29;12.15;;;11.05;;
13989;SDS011;7069;52.528;13.316;2023-06-22T02:42:55;11.18;;;10.18;;
13989;SDS011;7069;52.528;13.316;2023-06-22T02:45:23;15.70;;;14.20;;
13989;SDS011;7069;52.528;13.316;2023-06-22T02:47:49;10.68;;;9.77;;
13989;SDS011;7069;52.528;13.316;2023-06-22T02:50:16;11.45;;;10.55;;
13989;SDS011;7069;52.528;13.316;2023-06-22T02:52:42;12.30;;;11.10;;
13989;SDS011;7069;52.528;13.316;2023-06-22T02:55:11;12.15;;;11.00;;
13989;SDS011;7069;52.528;13.316;2023-06-22T02:57:37;15.30;;;13.82;;
13989;SDS011;7069;52.528;13.316;2023-06-22T03:00:10;13.15;;;11.95;;
13989;SDS011;7069;52.528;13.316;2023-06-22T03:02:42;14.13;;;12.73;;
13989;SDS011;7069;52.528;13.316;2023-06-22T03:05:09;14.15;;;12.85;;
13989;SDS011;7069;52.528;13.316;2023-06-22T03:07:39;14.20;;;12.80;;
13989;SDS011;7069;52.528;13.316;2023-06-22T03:10:06;15.88;;;14.38;;
13989;SDS011;7069;52.528;13.316;2023-06-22T03:12:33;15.25;;;13.85;;
13989;SDS011;7069;52.528;13.316;2023-06-22T03:15:00;14.25;;;12.75;;
13989;SDS011;7069;52.528;13.316;2023-06-22T03:17:26;12.65;;;11.38;;
13989;SDS011;7069;52.528;13.316;2023-06-22T03:19:53;15.57;;;11.32;;
13989;SDS011;7069;52.528;13.316;2023-06-22T03:22:19;12.05;;;10.95;;
13989;SDS011;7069;52.528;13.316;2023-06-22T03:24:45;12.63;;;11.50;;
13989;SDS011;7069;52.528;13.316;2023-06-22T03:27:12;14.20;;;12.88;;
13989;SDS011;7069;52.528;13.316;2023-06-22T03:29:40;12.52;;;11.48;;
13989;SDS011;7069;52.528;13.316;2023-06-22T03:32:06;14.45;;;13.05;;
13989;SDS011;7069;52.528;13.316;2023-06-22T03:34:33;13.18;;;11.85;;
13989;SDS011;7069;52.528;13.316;2023-06-22T03:36:59;13.40;;;12.13;;
13989;SDS011;7069;52.528;13.316;2023-06-22T03:39:26;11.95;;;10.85;;
13989;SDS011;7069;52.528;13.316;2023-06-22T03:41:52;11.57;;;10.48;;
13989;SDS011;7069;52.528;13.316;2023-06-22T03:44:18;10.75;;;9.75;;
13989;SDS011;7069;52.528;13.316;2023-06-22T03:46:46;9.80;;;8.90;;
13989;SDS011;7069;52.528;13.316;2023-06-22T03:49:12;10.65;;;9.73;;
13989;SDS011;7069;52.528;13.316;2023-06-22T03:51:39;9.77;;;8.98;;
13989;SDS011;7069;52.528;13.316;2023-06-22T03:54:08;11.20;;;10.20;;
13989;SDS011;7069;52.528;13.316;2023-06-22T03:56:34;10.02;;;9.18;;
13989;SDS011;7069;52.528;13.316;2023-06-22T03:59:00;10.32;;;9.35;;
13989;SDS011;7069;52.528;13.316;2023-06-22T04:01:27;10.65;;;8.60;;
13989;SDS011;7069;52.528;13.316;2023-06-22T04:03:55;9.20;;;8.30;;
13989;SDS011;7069;52.528;13.316;2023-06-22T04:06:21;9.15;;;8.27;;
13989;SDS011;7069;52.528;13.316;2023-06-22T04:08:48;11.07;;;10.02;;
13989;SDS011;7069;52.528;13.316;2023-06-22T04:11:16;11.43;;;8.63;;
13989;SDS011;7069;52.528;13.316;2023-06-22T04:13:42;8.70;;;7.85;;
13989;SDS011;7069;52.528;13.316;2023-06-22T04:16:11;9.57;;;8.57;;
13989;SDS011;7069;52.528;13.316;2023-06-22T04:18:38;10.63;;;9.70;;
13989;SDS011;7069;52.528;13.316;2023-06-22T04:21:06;11.60;;;8.43;;
13989;SDS011;7069;52.528;13.316;2023-06-22T04:23:32;8.80;;;8.00;;
13989;SDS011;7069;52.528;13.316;2023-06-22T04:26:00;10.68;;;9.57;;
13989;SDS011;7069;52.528;13.316;2023-06-22T04:28:27;10.05;;;8.70;;
13989;SDS011;7069;52.528;13.316;2023-06-22T04:30:55;10.05;;;8.65;;
13989;SDS011;7069;52.528;13.316;2023-06-22T04:33:27;12.70;;;9.35;;
13989;SDS011;7069;52.528;13.316;2023-06-22T04:35:54;8.52;;;7.65;;
13989;SDS011;7069;52.528;13.316;2023-06-22T04:38:23;7.03;;;6.43;;
13989;SDS011;7069;52.528;13.316;2023-06-22T04:40:50;9.18;;;7.28;;
13989;SDS011;7069;52.528;13.316;2023-06-22T04:43:18;8.43;;;7.68;;
13989;SDS011;7069;52.528;13.316;2023-06-22T04:45:44;7.45;;;6.47;;
13989;SDS011;7069;52.528;13.316;2023-06-22T04:48:17;9.00;;;7.43;;
13989;SDS011;7069;52.528;13.316;2023-06-22T04:50:44;8.63;;;7.72;;
13989;SDS011;7069;52.528;13.316;2023-06-22T04:53:14;7.65;;;7.05;;
13989;SDS011;7069;52.528;13.316;2023-06-22T04:55:41;7.88;;;7.07;;
13989;SDS011;7069;52.528;13.316;2023-06-22T04:58:10;7.40;;;6.78;;
13989;SDS011;7069;52.528;13.316;2023-06-22T05:00:38;6.93;;;6.25;;
13989;SDS011;7069;52.528;13.316;2023-06-22T05:03:04;6.85;;;6.15;;
13989;SDS011;7069;52.528;13.316;2023-06-22T05:05:31;8.38;;;6.15;;
13989;SDS011;7069;52.528;13.316;2023-06-22T05:07:58;7.10;;;5.60;;
13989;SDS011;7069;52.528;13.316;2023-06-22T05:10:27;5.82;;;5.32;;
13989;SDS011;7069;52.528;13.316;2023-06-22T05:12:55;4.93;;;4.50;;
13989;SDS011;7069;52.528;13.316;2023-06-22T05:15:21;4.88;;;4.35;;
13989;SDS011;7069;52.528;13.316;2023-06-22T05:17:51;5.03;;;4.25;;
13989;SDS011;7069;52.528;13.316;2023-06-22T05:20:18;7.32;;;4.38;;
13989;SDS011;7069;52.528;13.316;2023-06-22T05:22:44;5.95;;;5.00;;
13989;SDS011;7069;52.528;13.316;2023-06-22T05:25:11;5.78;;;4.32;;
13989;SDS011;7069;52.528;13.316;2023-06-22T05:27:37;4.57;;;4.18;;
13989;SDS011;7069;52.528;13.316;2023-06-22T05:30:07;5.05;;;3.88;;
13989;SDS011;7069;52.528;13.316;2023-06-22T05:32:34;3.70;;;3.40;;
13989;SDS011;7069;52.528;13.316;2023-06-22T05:35:01;4.72;;;3.97;;
13989;SDS011;7069;52.528;13.316;2023-06-22T05:37:28;5.43;;;4.93;;
13989;SDS011;7069;52.528;13.316;2023-06-22T05:39:54;5.20;;;4.78;;
13989;SDS011;7069;52.528;13.316;2023-06-22T05:42:22;4.50;;;3.78;;
13989;SDS011;7069;52.528;13.316;2023-06-22T05:44:50;5.95;;;3.92;;
13989;SDS011;7069;52.528;13.316;2023-06-22T05:47:18;5.45;;;3.85;;
13989;SDS011;7069;52.528;13.316;2023-06-22T05:49:44;4.43;;;4.03;;
13989;SDS011;7069;52.528;13.316;2023-06-22T05:52:11;4.85;;;4.35;;
13989;SDS011;7069;52.528;13.316;2023-06-22T05:54:45;4.20;;;3.80;;
13989;SDS011;7069;52.528;13.316;2023-06-22T05:57:12;5.00;;;4.45;;
13989;SDS011;7069;52.528;13.316;2023-06-22T05:59:39;7.80;;;4.03;;
13989;SDS011;7069;52.528;13.316;2023-06-22T06:02:05;4.78;;;4.18;;
13989;SDS011;7069;52.528;13.316;2023-06-22T06:04:33;5.80;;;4.07;;
13989;SDS011;7069;52.528;13.316;2023-06-22T06:07:00;6.22;;;4.28;;
13989;SDS011;7069;52.528;13.316;2023-06-22T06:09:29;7.93;;;4.85;;
13989;SDS011;7069;52.528;13.316;2023-06-22T06:11:57;6.43;;;4.50;;
13989;SDS011;7069;52.528;13.316;2023-06-22T06:14:29;4.30;;;3.90;;
13989;SDS011;7069;52.528;13.316;2023-06-22T06:16:57;6.47;;;4.65;;
13989;SDS011;7069;52.528;13.316;2023-06-22T06:19:24;4.82;;;3.88;;
13989;SDS011;7069;52.528;13.316;2023-06-22T06:21:52;6.82;;;4.45;;
13989;SDS011;7069;52.528;13.316;2023-06-22T06:24:18;4.68;;;4.28;;
13989;SDS011;7069;52.528;13.316;2023-06-22T06:26:45;5.35;;;4.60;;
13989;SDS011;7069;52.528;13.316;2023-06-22T06:29:12;4.68;;;4.20;;
13989;SDS011;7069;52.528;13.316;2023-06-22T06:31:41;5.30;;;4.80;;
13989;SDS011;7069;52.528;13.316;2023-06-22T06:34:07;5.72;;;4.70;;
13989;SDS011;7069;52.528;13.316;2023-06-22T06:36:34;5.57;;;4.95;;
13989;SDS011;7069;52.528;13.316;2023-06-22T06:39:02;4.85;;;4.25;;
13989;SDS011;7069;52.528;13.316;2023-06-22T06:41:29;4.97;;;4.25;;
13989;SDS011;7069;52.528;13.316;2023-06-22T06:43:55;7.22;;;4.85;;
13989;SDS011;7069;52.528;13.316;2023-06-22T06:46:22;5.60;;;4.15;;
13989;SDS011;7069;52.528;13.316;2023-06-22T06:48:48;6.57;;;3.25;;
13989;SDS011;7069;52.528;13.316;2023-06-22T06:51:15;3.92;;;3.47;;
13989;SDS011;7069;52.528;13.316;2023-06-22T06:53:41;4.53;;;3.60;;
13989;SDS011;7069;52.528;13.316;2023-06-22T06:56:11;4.40;;;3.53;;
13989;SDS011;7069;52.528;13.316;2023-06-22T06:58:38;6.10;;;4.22;;
13989;SDS011;7069;52.528;13.316;2023-06-22T07:01:05;6.18;;;3.60;;
13989;SDS011;7069;52.528;13.316;2023-06-22T07:03:31;6.38;;;4.35;;
13989;SDS011;7069;52.528;13.316;2023-06-22T07:05:58;4.80;;;3.42;;
13989;SDS011;7069;52.528;13.316;2023-06-22T07:08:24;4.35;;;3.92;;
13989;SDS011;7069;52.528;13.316;2023-06-22T07:10:51;3.63;;;3.15;;
13989;SDS011;7069;52.528;13.316;2023-06-22T07:13:19;7.10;;;3.83;;
13989;SDS011;7069;52.528;13.316;2023-06-22T07:15:45;3.70;;;3.40;;
13989;SDS011;7069;52.528;13.316;2023-06-22T07:18:12;6.32;;;4.40;;
13989;SDS011;7069;52.528;13.316;2023-06-22T07:20:38;4.20;;;3.80;;
13989;SDS011;7069;52.528;13.316;2023-06-22T07:23:06;3.95;;;3.53;;
13989;SDS011;7069;52.528;13.316;2023-06-22T07:25:32;4.43;;;3.30;;
13989;SDS011;7069;52.528;13.316;2023-06-22T07:27:59;5.05;;;4.10;;
13989;SDS011;7069;52.528;13.316;2023-06-22T07:30:28;3.85;;;3.47;;
13989;SDS011;7069;52.528;13.316;2023-06-22T07:32:54;5.38;;;3.50;;
13989;SDS011;7069;52.528;13.316;2023-06-22T07:35:21;3.72;;;3.35;;
13989;SDS011;7069;52.528;13.316;2023-06-22T07:37:48;4.25;;;3.53;;
13989;SDS011;7069;52.528;13.316;2023-06-22T07:40:14;3.22;;;2.60;;
13989;SDS011;7069;52.528;13.316;2023-06-22T07:42:40;4.13;;;3.35;;
13989;SDS011;7069;52.528;13.316;2023-06-22T07:45:07;3.53;;;2.92;;
13989;SDS011;7069;52.528;13.316;2023-06-22T07:47:35;3.08;;;2.50;;
13989;SDS011;7069;52.528;13.316;2023-06-22T07:50:02;3.03;;;2.72;;
13989;SDS011;7069;52.528;13.316;2023-06-22T07:52:29;4.43;;;2.90;;
13989;SDS011;7069;52.528;13.316;2023-06-22T07:54:56;4.60;;;3.60;;
13989;SDS011;7069;52.528;13.316;2023-06-22T07:57:23;5.90;;;2.95;;
13989;SDS011;7069;52.528;13.316;2023-06-22T07:59:57;4.63;;;3.30;;
13989;SDS011;7069;52.528;13.316;2023-06-22T08:02:23;4.97;;;2.58;;
13989;SDS011;7069;52.528;13.316;2023-06-22T08:04:51;6.82;;;2.75;;
13989;SDS011;7069;52.528;13.316;2023-06-22T08:07:17;3.42;;;3.13;;
13989;SDS011;7069;52.528;13.316;2023-06-22T08:09:46;2.35;;;2.15;;
13989;SDS011;7069;52.528;13.316;2023-06-22T08:12:12;3.42;;;3.13;;
13989;SDS011;7069;52.528;13.316;2023-06-22T08:14:38;3.75;;;2.83;;
13989;SDS011;7069;52.528;13.316;2023-06-22T08:17:05;2.65;;;2.45;;
13989;SDS011;7069;52.528;13.316;2023-06-22T08:19:31;3.50;;;2.97;;
13989;SDS011;7069;52.528;13.316;2023-06-22T08:21:59;3.78;;;2.88;;
13989;SDS011;7069;52.528;13.316;2023-06-22T08:24:26;2.70;;;2.50;;
13989;SDS011;7069;52.528;13.316;2023-06-22T08:26:55;4.30;;;2.67;;
13989;SDS011;7069;52.528;13.316;2023-06-22T08:29:22;3.95;;;2.88;;
13989;SDS011;7069;52.528;13.316;2023-06-22T08:31:48;5.40;;;2.85;;
13989;SDS011;7069;52.528;13.316;2023-06-22T08:34:14;3.42;;;2.72;;
13989;SDS011;7069;52.528;13.316;2023-06-22T08:36:41;3.05;;;2.85;;
13989;SDS011;7069;52.528;13.316;2023-06-22T08:39:09;2.90;;;2.35;;
13989;SDS011;7069;52.528;13.316;2023-06-22T08:41:36;3.22;;;2.83;;
13989;SDS011;7069;52.528;13.316;2023-06-22T08:44:02;2.17;;;1.98;;
13989;SDS011;7069;52.528;13.316;2023-06-22T08:46:29;4.28;;;2.88;;
13989;SDS011;7069;52.528;13.316;2023-06-22T08:48:58;2.58;;;2.38;;
13989;SDS011;7069;52.528;13.316;2023-06-22T08:51:26;3.75;;;2.67;;
13989;SDS011;7069;52.528;13.316;2023-06-22T08:53:53;3.67;;;2.78;;
13989;SDS011;7069;52.528;13.316;2023-06-22T08:56:21;3.33;;;2.30;;
13989;SDS011;7069;52.528;13.316;2023-06-22T08:58:47;3.10;;;2.45;;
13989;SDS011;7069;52.528;13.316;2023-06-22T09:01:14;3.50;;;2.95;;
13989;SDS011;7069;52.528;13.316;2023-06-22T09:03:41;2.88;;;2.53;;
13989;SDS011;7069;52.528;13.316;2023-06-22T09:06:07;3.85;;;3.45;;
13989;SDS011;7069;52.528;13.316;2023-06-22T09:08:35;5.65;;;3.20;;
13989;SDS011;7069;52.528;13.316;2023-06-22T09:11:01;4.25;;;3.28;;
13989;SDS011;7069;52.528;13.316;2023-06-22T09:13:30;4.20;;;3.10;;
13989;SDS011;7069;52.528;13.316;2023-06-22T09:15:56;3.80;;;3.05;;
13989;SDS011;7069;52.528;13.316;2023-06-22T09:18:23;3.05;;;2.85;;
13989;SDS011;7069;52.528;13.316;2023-06-22T09:20:49;3.13;;;2.83;;
13989;SDS011;7069;52.528;13.316;2023-06-22T09:23:16;3.08;;;2.88;;
13989;SDS011;7069;52.528;13.316;2023-06-22T09:25:42;4.78;;;4.30;;
13989;SDS011;7069;52.528;13.316;2023-06-22T09:28:09;3.55;;;3.13;;
13989;SDS011;7069;52.528;13.316;2023-06-22T09:30:37;7.25;;;3.40;;
13989;SDS011;7069;52.528;13.316;2023-06-22T09:33:03;3.33;;;3.03;;
13989;SDS011;7069;52.528;13.316;2023-06-22T09:35:29;3.42;;;3.13;;
13989;SDS011;7069;52.528;13.316;2023-06-22T09:37:56;3.42;;;3.13;;
13989;SDS011;7069;52.528;13.316;2023-06-22T09:40:22;3.90;;;3.50;;
13989;SDS011;7069;52.528;13.316;2023-06-22T09:42:48;3.75;;;3.45;;
13989;SDS011;7069;52.528;13.316;2023-06-22T09:45:15;6.50;;;3.58;;
13989;SDS011;7069;52.528;13.316;2023-06-22T09:47:43;3.47;;;2.90;;
13989;SDS011;7069;52.528;13.316;2023-06-22T09:50:09;3.58;;;3.08;;
13989;SDS011;7069;52.528;13.316;2023-06-22T09:52:36;4.75;;;3.67;;
13989;SDS011;7069;52.528;13.316;2023-06-22T09:55:02;8.48;;;4.38;;
13989;SDS011;7069;52.528;13.316;2023-06-22T09:57:29;3.38;;;3.08;;
13989;SDS011;7069;52.528;13.316;2023-06-22T09:59:56;2.97;;;2.67;;
13989;SDS011;7069;52.528;13.316;2023-06-22T10:02:23;3.30;;;3.10;;
13989;SDS011;7069;52.528;13.316;2023-06-22T10:04:50;3.33;;;3.13;;
13989;SDS011;7069;52.528;13.316;2023-06-22T10:07:17;3.30;;;2.90;;
13989;SDS011;7069;52.528;13.316;2023-06-22T10:09:43;5.63;;;3.13;;
13989;SDS011;7069;52.528;13.316;2023-06-22T10:12:12;3.70;;;3.40;;
13989;SDS011;7069;52.528;13.316;2023-06-22T10:14:39;4.93;;;3.85;;
13989;SDS011;7069;52.528;13.316;2023-06-22T10:17:05;3.22;;;3.03;;
13989;SDS011;7069;52.528;13.316;2023-06-22T10:19:32;3.80;;;3.50;;
13989;SDS011;7069;52.528;13.316;2023-06-22T10:22:00;3.53;;;3.22;;
13989;SDS011;7069;52.528;13.316;2023-06-22T10:24:26;3.45;;;3.15;;
13989;SDS011;7069;52.528;13.316;2023-06-22T10:26:53;4.10;;;3.80;;
13989;SDS011;7069;52.528;13.316;2023-06-22T10:29:20;7.57;;;3.70;;
13989;SDS011;7069;52.528;13.316;2023-06-22T10:31:46;4.25;;;3.95;;
13989;SDS011;7069;52.528;13.316;2023-06-22T10:34:13;4.20;;;3.80;;
13989;SDS011;7069;52.528;13.316;2023-06-22T10:36:39;3.95;;;3.60;;
13989;SDS011;7069;52.528;13.316;2023-06-22T10:39:07;3.42;;;3.15;;
13989;SDS011;7069;52.528;13.316;2023-06-22T10:41:33;7.20;;;4.35;;
13989;SDS011;7069;52.528;13.316;2023-06-22T10:44:00;4.22;;;3.85;;
13989;SDS011;7069;52.528;13.316;2023-06-22T10:46:27;7.55;;;4.00;;
13989;SDS011;7069;52.528;13.316;2023-06-22T10:48:53;3.78;;;3.47;;
13989;SDS011;7069;52.528;13.316;2023-06-22T10:51:22;3.72;;;3.42;;
13989;SDS011;7069;52.528;13.316;2023-06-22T10:53:48;4.60;;;4.10;;
13989;SDS011;7069;52.528;13.316;2023-06-22T10:56:17;5.05;;;3.92;;
13989;SDS011;7069;52.528;13.316;2023-06-22T10:58:44;6.10;;;4.03;;
13989;SDS011;7069;52.528;13.316;2023-06-22T11:01:10;3.97;;;3.65;;
13989;SDS011;7069;52.528;13.316;2023-06-22T11:03:37;4.80;;;3.65;;
13989;SDS011;7069;52.528;13.316;2023-06-22T11:06:03;4.97;;;3.70;;
13989;SDS011;7069;52.528;13.316;2023-06-22T11:08:30;5.72;;;4.07;;
13989;SDS011;7069;52.528;13.316;2023-06-22T11:10:56;3.22;;;3.03;;
13989;SDS011;7069;52.528;13.316;2023-06-22T11:13:24;4.13;;;3.83;;
13989;SDS011;7069;52.528;13.316;2023-06-22T11:15:50;5.55;;;4.28;;
13989;SDS011;7069;52.528;13.316;2023-06-22T11:18:16;3.85;;;3.55;;
13989;SDS011;7069;52.528;13.316;2023-06-22T11:20:43;4.40;;;4.00;;
13989;SDS011;7069;52.528;13.316;2023-06-22T11:23:09;5.65;;;4.13;;
13989;SDS011;7069;52.528;13.316;2023-06-22T11:25:36;4.90;;;4.50;;
13989;SDS011;7069;52.528;13.316;2023-06-22T11:28:03;4.35;;;3.50;;
13989;SDS011;7069;52.528;13.316;2023-06-22T11:30:31;5.30;;;4.10;;
13989;SDS011;7069;52.528;13.316;2023-06-22T11:32:58;5.22;;;3.42;;
13989;SDS011;7069;52.528;13.316;2023-06-22T11:35:25;4.22;;;3.90;;
13989;SDS011;7069;52.528;13.316;2023-06-22T11:37:51;3.90;;;3.47;;
13989;SDS011;7069;52.528;13.316;2023-06-22T11:40:18;4.20;;;3.58;;
13989;SDS011;7069;52.528;13.316;2023-06-22T11:42:44;4.13;;;3.72;;
13989;SDS011;7069;52.528;13.316;2023-06-22T11:45:11;4.20;;;3.67;;
13989;SDS011;7069;52.528;13.316;2023-06-22T11:47:38;6.13;;;4.35;;
13989;SDS011;7069;52.528;13.316;2023-06-22T11:50:05;4.07;;;3.78;;
13989;SDS011;7069;52.528;13.316;2023-06-22T11:52:33;4.28;;;3.97;;
13989;SDS011;7069;52.528;13.316;2023-06-22T11:55:00;4.30;;;3.45;;
13989;SDS011;7069;52.528;13.316;2023-06-22T11:57:28;6.63;;;3.83;;
13989;SDS011;7069;52.528;13.316;2023-06-22T11:59:55;5.75;;;5.28;;
13989;SDS011;7069;52.528;13.316;2023-06-22T12:02:21;4.65;;;4.15;;
13989;SDS011;7069;52.528;13.316;2023-06-22T12:04:49;3.92;;;3.63;;
13989;SDS011;7069;52.528;13.316;2023-06-22T12:07:17;4.03;;;3.63;;
13989;SDS011;7069;52.528;13.316;2023-06-22T12:09:44;5.03;;;3.58;;
13989;SDS011;7069;52.528;13.316;2023-06-22T12:12:10;5.68;;;4.15;;
13989;SDS011;7069;52.528;13.316;2023-06-22T12:14:37;4.55;;;4.07;;
13989;SDS011;7069;52.528;13.316;2023-06-22T12:17:03;4.75;;;4.28;;
13989;SDS011;7069;52.528;13.316;2023-06-22T12:19:30;4.50;;;3.92;;
13989;SDS011;7069;52.528;13.316;2023-06-22T12:21:58;4.05;;;3.75;;
13989;SDS011;7069;52.528;13.316;2023-06-22T12:24:24;4.45;;;4.05;;
13989;SDS011;7069;52.528;13.316;2023-06-22T12:26:50;5.45;;;3.40;;
13989;SDS011;7069;52.528;13.316;2023-06-22T12:29:17;4.13;;;3.83;;
13989;SDS011;7069;52.528;13.316;2023-06-22T12:31:43;6.07;;;4.00;;
13989;SDS011;7069;52.528;13.316;2023-06-22T12:34:09;6.75;;;3.78;;
13989;SDS011;7069;52.528;13.316;2023-06-22T12:36:36;4.03;;;3.63;;
13989;SDS011;7069;52.528;13.316;2023-06-22T12:39:04;4.28;;;3.88;;
13989;SDS011;7069;52.528;13.316;2023-06-22T12:41:31;4.30;;;4.00;;
13989;SDS011;7069;52.528;13.316;2023-06-22T12:43:58;4.10;;;3.80;;
13989;SDS011;7069;52.528;13.316;2023-06-22T12:46:24;3.33;;;3.13;;
13989;SDS011;7069;52.528;13.316;2023-06-22T12:48:51;4.47;;;4.07;;
13989;SDS011;7069;52.528;13.316;2023-06-22T12:51:20;4.13;;;3.42;;
13989;SDS011;7069;52.528;13.316;2023-06-22T12:53:46;4.03;;;3.72;;
13989;SDS011;7069;52.528;13.316;2023-06-22T12:56:14;4.28;;;3.97;;
13989;SDS011;7069;52.528;13.316;2023-06-22T12:58:41;4.15;;;3.75;;
13989;SDS011;7069;52.528;13.316;2023-06-22T13:01:07;6.47;;;4.38;;
13989;SDS011;7069;52.528;13.316;2023-06-22T13:03:33;4.20;;;3.90;;
13989;SDS011;7069;52.528;13.316;2023-06-22T13:06:00;4.70;;;4.30;;
13989;SDS011;7069;52.528;13.316;2023-06-22T13:08:27;10.23;;;4.63;;
13989;SDS011;7069;52.528;13.316;2023-06-22T13:10:53;4.22;;;3.92;;
13989;SDS011;7069;52.528;13.316;2023-06-22T13:13:23;4.38;;;4.00;;
13989;SDS011;7069;52.528;13.316;2023-06-22T13:15:50;4.68;;;3.80;;
13989;SDS011;7069;52.528;13.316;2023-06-22T13:18:17;4.38;;;4.03;;
13989;SDS011;7069;52.528;13.316;2023-06-22T13:20:44;3.67;;;3.38;;
13989;SDS011;7069;52.528;13.316;2023-06-22T13:23:11;4.85;;;4.15;;
13989;SDS011;7069;52.528;13.316;2023-06-22T13:25:38;7.47;;;4.00;;
13989;SDS011;7069;52.528;13.316;2023-06-22T13:28:05;5.97;;;4.68;;
13989;SDS011;7069;52.528;13.316;2023-06-22T13:30:33;4.30;;;4.00;;
13989;SDS011;7069;52.528;13.316;2023-06-22T13:32:59;4.88;;;4.30;;
13989;SDS011;7069;52.528;13.316;2023-06-22T13:35:26;4.20;;;3.80;;
13989;SDS011;7069;52.528;13.316;2023-06-22T13:37:52;4.88;;;4.47;;
13989;SDS011;7069;52.528;13.316;2023-06-22T13:40:18;4.72;;;4.32;;
13989;SDS011;7069;52.528;13.316;2023-06-22T13:42:45;4.88;;;4.53;;
13989;SDS011;7069;52.528;13.316;2023-06-22T13:45:11;4.70;;;4.40;;
13989;SDS011;7069;52.528;13.316;2023-06-22T13:47:39;5.95;;;4.75;;
13989;SDS011;7069;52.528;13.316;2023-06-22T13:50:06;5.40;;;4.40;;
13989;SDS011;7069;52.528;13.316;2023-06-22T13:52:32;6.30;;;4.45;;
13989;SDS011;7069;52.528;13.316;2023-06-22T13:54:59;4.55;;;4.15;;
13989;SDS011;7069;52.528;13.316;2023-06-22T13:57:25;4.82;;;4.43;;
13989;SDS011;7069;52.528;13.316;2023-06-22T13:59:52;5.68;;;4.05;;
13989;SDS011;7069;52.528;13.316;2023-06-22T14:02:18;5.05;;;4.22;;
13989;SDS011;7069;52.528;13.316;2023-06-22T14:04:46;4.32;;;4.03;;
13989;SDS011;7069;52.528;13.316;2023-06-22T14:07:12;6.65;;;4.55;;
13989;SDS011;7069;52.528;13.316;2023-06-22T14:09:39;4.70;;;4.32;;
13989;SDS011;7069;52.528;13.316;2023-06-22T14:12:06;6.35;;;4.93;;
13989;SDS011;7069;52.528;13.316;2023-06-22T14:14:33;5.18;;;4.13;;
13989;SDS011;7069;52.528;13.316;2023-06-22T14:16:59;4.13;;;3.45;;
13989;SDS011;7069;52.528;13.316;2023-06-22T14:19:26;4.10;;;3.80;;
13989;SDS011;7069;52.528;13.316;2023-06-22T14:21:54;4.75;;;4.35;;
13989;SDS011;7069;52.528;13.316;2023-06-22T14:24:21;4.63;;;4.30;;
13989;SDS011;7069;52.528;13.316;2023-06-22T14:26:48;5.22;;;4.80;;
13989;SDS011;7069;52.528;13.316;2023-06-22T14:29:15;8.32;;;5.28;;
13989;SDS011;7069;52.528;13.316;2023-06-22T14:31:44;4.80;;;4.38;;
13989;SDS011;7069;52.528;13.316;2023-06-22T14:34:11;5.03;;;4.60;;
13989;SDS011;7069;52.528;13.316;2023-06-22T14:36:37;5.82;;;5.30;;
13989;SDS011;7069;52.528;13.316;2023-06-22T14:39:05;5.22;;;4.82;;
13989;SDS011;7069;52.528;13.316;2023-06-22T14:41:32;4.35;;;4.05;;